sensor_id;sensor_type;location;lat;lon;timestamp;P1;durP1;ratioP1;P2;durP2;ratioP2
9264;SDS011;4669;49.594;10.958;2022-12-07T05:29:34;19.85;;;17.75;;
9264;SDS011;4669;49.594;10.958;2022-12-07T05:34:36;21.20;;;19.08;;
9264;SDS011;4669;49.594;10.958;2022-12-07T05:39:38;21.20;;;19.10;;
9264;SDS011;4669;49.594;10.958;2022-12-07T05:44:44;20.05;;;18.05;;
9264;SDS011;4669;49.594;10.958;2022-12-07T05:49:47;20.92;;;18.73;;
9264;SDS011;4669;49.594;10.958;2022-12-07T05:54:49;22.10;;;19.83;;
9264;SDS011;4669;49.594;10.958;2022-12-07T05:59:52;21.17;;;19.00;;
9264;SDS011;4669;49.594;10.958;2022-12-07T06:04:54;20.27;;;18.17;;
9264;SDS011;4669;49.594;10.958;2022-12-07T06:09:56;20.50;;;18.35;;
9264;SDS011;4669;49.594;10.958;2022-12-07T06:15:00;19.23;;;17.25;;
9264;SDS011;4669;49.594;10.958;2022-12-07T06:20:02;19.67;;;17.85;;
9264;SDS011;4669;49.594;10.958;2022-12-07T06:25:05;20.35;;;18.25;;
9264;SDS011;4669;49.594;10.958;2022-12-07T06:30:10;19.27;;;17.30;;
9264;SDS011;4669;49.594;10.958;2022-12-07T06:35:12;19.30;;;17.30;;
9264;SDS011;4669;49.594;10.958;2022-12-07T06:40:15;21.60;;;19.30;;
9264;SDS011;4669;49.594;10.958;2022-12-07T06:45:18;19.33;;;17.35;;
9264;SDS011;4669;49.594;10.958;2022-12-07T06:50:20;18.27;;;16.38;;
9264;SDS011;4669;49.594;10.958;2022-12-07T06:55:22;18.83;;;16.90;;
9264;SDS011;4669;49.594;10.958;2022-12-07T07:00:25;18.25;;;16.35;;
9264;SDS011;4669;49.594;10.958;2022-12-07T07:05:27;19.95;;;17.95;;
9264;SDS011;4669;49.594;10.958;2022-12-07T07:10:29;20.60;;;18.50;;
9264;SDS011;4669;49.594;10.958;2022-12-07T07:15:33;20.65;;;18.45;;
9264;SDS011;4669;49.594;10.958;2022-12-07T07:20:36;21.17;;;19.08;;
9264;SDS011;4669;49.594;10.958;2022-12-07T07:25:38;21.23;;;19.05;;
9264;SDS011;4669;49.594;10.958;2022-12-07T07:30:42;21.83;;;19.52;;
9264;SDS011;4669;49.594;10.958;2022-12-07T07:35:44;22.48;;;19.50;;
9264;SDS011;4669;49.594;10.958;2022-12-07T07:40:46;22.20;;;19.83;;
9264;SDS011;4669;49.594;10.958;2022-12-07T07:45:50;24.58;;;21.98;;
9264;SDS011;4669;49.594;10.958;2022-12-07T07:50:52;22.67;;;20.38;;
9264;SDS011;4669;49.594;10.958;2022-12-07T07:55:54;23.52;;;21.13;;
9264;SDS011;4669;49.594;10.958;2022-12-07T08:00:57;23.35;;;20.80;;
9264;SDS011;4669;49.594;10.958;2022-12-07T08:06:05;23.85;;;20.42;;
9264;SDS011;4669;49.594;10.958;2022-12-07T08:11:07;21.55;;;19.35;;
9264;SDS011;4669;49.594;10.958;2022-12-07T08:16:11;22.70;;;20.20;;
9264;SDS011;4669;49.594;10.958;2022-12-07T08:21:15;22.73;;;20.40;;
9264;SDS011;4669;49.594;10.958;2022-12-07T08:26:17;21.77;;;19.52;;
9264;SDS011;4669;49.594;10.958;2022-12-07T08:31:20;20.33;;;18.17;;
9264;SDS011;4669;49.594;10.958;2022-12-07T08:36:22;19.90;;;17.60;;
9264;SDS011;4669;49.594;10.958;2022-12-07T08:41:25;19.67;;;17.65;;
9264;SDS011;4669;49.594;10.958;2022-12-07T08:46:30;19.80;;;17.70;;
9264;SDS011;4669;49.594;10.958;2022-12-07T08:51:37;17.25;;;15.45;;
9264;SDS011;4669;49.594;10.958;2022-12-07T08:56:40;19.40;;;17.33;;
9264;SDS011;4669;49.594;10.958;2022-12-07T09:01:44;19.00;;;17.00;;
9264;SDS011;4669;49.594;10.958;2022-12-07T09:06:46;18.63;;;15.77;;
9264;SDS011;4669;49.594;10.958;2022-12-07T09:11:49;16.77;;;15.07;;
9264;SDS011;4669;49.594;10.958;2022-12-07T09:16:52;16.15;;;14.50;;
9264;SDS011;4669;49.594;10.958;2022-12-07T09:21:56;18.33;;;15.50;;
9264;SDS011;4669;49.594;10.958;2022-12-07T09:26:58;17.42;;;15.63;;
9264;SDS011;4669;49.594;10.958;2022-12-07T09:32:02;17.10;;;15.40;;
9264;SDS011;4669;49.594;10.958;2022-12-07T09:37:04;16.88;;;15.18;;
9264;SDS011;4669;49.594;10.958;2022-12-07T09:42:07;17.48;;;15.57;;
9264;SDS011;4669;49.594;10.958;2022-12-07T09:47:19;18.27;;;15.73;;
9264;SDS011;4669;49.594;10.958;2022-12-07T09:52:24;16.20;;;14.57;;
9264;SDS011;4669;49.594;10.958;2022-12-07T09:57:29;17.73;;;15.93;;
9264;SDS011;4669;49.594;10.958;2022-12-07T10:02:38;17.48;;;15.68;;
9264;SDS011;4669;49.594;10.958;2022-12-07T10:07:43;17.30;;;15.50;;
9264;SDS011;4669;49.594;10.958;2022-12-07T10:12:52;17.70;;;15.85;;
9264;SDS011;4669;49.594;10.958;2022-12-07T10:17:57;17.65;;;15.85;;
9264;SDS011;4669;49.594;10.958;2022-12-07T10:23:01;18.17;;;16.27;;
9264;SDS011;4669;49.594;10.958;2022-12-07T10:28:12;15.80;;;14.15;;
9264;SDS011;4669;49.594;10.958;2022-12-07T10:33:33;16.08;;;14.48;;
9264;SDS011;4669;49.594;10.958;2022-12-07T10:38:37;16.05;;;14.43;;
9264;SDS011;4669;49.594;10.958;2022-12-07T10:43:48;16.45;;;14.73;;
9264;SDS011;4669;49.594;10.958;2022-12-07T10:48:54;16.88;;;14.30;;
9264;SDS011;4669;49.594;10.958;2022-12-07T10:54:09;15.48;;;13.88;;
9264;SDS011;4669;49.594;10.958;2022-12-07T10:59:38;17.52;;;15.80;;
9264;SDS011;4669;49.594;10.958;2022-12-07T11:04:56;17.15;;;15.45;;
9264;SDS011;4669;49.594;10.958;2022-12-07T11:10:08;18.10;;;15.63;;
9264;SDS011;4669;49.594;10.958;2022-12-07T11:15:17;19.02;;;15.45;;
9264;SDS011;4669;49.594;10.958;2022-12-07T11:20:33;16.90;;;15.23;;
9264;SDS011;4669;49.594;10.958;2022-12-07T11:25:42;17.52;;;15.23;;
9264;SDS011;4669;49.594;10.958;2022-12-07T11:30:54;16.55;;;14.77;;
9264;SDS011;4669;49.594;10.958;2022-12-07T11:36:07;15.30;;;13.73;;
9264;SDS011;4669;49.594;10.958;2022-12-07T11:41:26;15.43;;;13.82;;
9264;SDS011;4669;49.594;10.958;2022-12-07T11:46:34;16.48;;;14.77;;
9264;SDS011;4669;49.594;10.958;2022-12-07T11:51:47;17.23;;;14.48;;
9264;SDS011;4669;49.594;10.958;2022-12-07T11:56:53;15.20;;;13.43;;
9264;SDS011;4669;49.594;10.958;2022-12-07T12:02:00;14.98;;;13.35;;
9264;SDS011;4669;49.594;10.958;2022-12-07T12:07:21;15.98;;;13.07;;
9264;SDS011;4669;49.594;10.958;2022-12-07T12:12:31;16.60;;;13.02;;
9264;SDS011;4669;49.594;10.958;2022-12-07T12:17:59;14.02;;;12.65;;
9264;SDS011;4669;49.594;10.958;2022-12-07T12:23:21;14.88;;;13.38;;
9264;SDS011;4669;49.594;10.958;2022-12-07T12:28:27;14.63;;;13.02;;
9264;SDS011;4669;49.594;10.958;2022-12-07T12:33:32;15.43;;;13.73;;
9264;SDS011;4669;49.594;10.958;2022-12-07T12:38:49;14.68;;;13.27;;
9264;SDS011;4669;49.594;10.958;2022-12-07T12:43:53;14.98;;;13.38;;
9264;SDS011;4669;49.594;10.958;2022-12-07T12:48:55;14.38;;;12.98;;
9264;SDS011;4669;49.594;10.958;2022-12-07T12:54:21;14.93;;;12.57;;
9264;SDS011;4669;49.594;10.958;2022-12-07T12:59:26;13.07;;;11.85;;
9264;SDS011;4669;49.594;10.958;2022-12-07T13:09:56;13.93;;;12.52;;
9264;SDS011;4669;49.594;10.958;2022-12-07T13:14:58;13.45;;;12.05;;
9264;SDS011;4669;49.594;10.958;2022-12-07T13:20:00;13.02;;;11.70;;
9264;SDS011;4669;49.594;10.958;2022-12-07T13:25:05;12.02;;;10.93;;
9264;SDS011;4669;49.594;10.958;2022-12-07T13:30:14;12.02;;;10.65;;
9264;SDS011;4669;49.594;10.958;2022-12-07T13:35:28;13.52;;;11.35;;
9264;SDS011;4669;49.594;10.958;2022-12-07T13:40:35;12.07;;;10.88;;
9264;SDS011;4669;49.594;10.958;2022-12-07T13:45:38;11.00;;;9.90;;
9264;SDS011;4669;49.594;10.958;2022-12-07T13:50:52;12.70;;;11.40;;
9264;SDS011;4669;49.594;10.958;2022-12-07T13:55:57;12.57;;;11.27;;
9264;SDS011;4669;49.594;10.958;2022-12-07T14:01:00;31.83;;;23.15;;
9264;SDS011;4669;49.594;10.958;2022-12-07T14:11:28;19.20;;;14.93;;
9264;SDS011;4669;49.594;10.958;2022-12-07T14:16:32;14.75;;;13.15;;
9264;SDS011;4669;49.594;10.958;2022-12-07T14:21:35;13.25;;;11.65;;
9264;SDS011;4669;49.594;10.958;2022-12-07T14:26:39;14.75;;;13.15;;
9264;SDS011;4669;49.594;10.958;2022-12-07T14:31:41;13.65;;;12.35;;
9264;SDS011;4669;49.594;10.958;2022-12-07T14:36:43;17.60;;;14.18;;
9264;SDS011;4669;49.594;10.958;2022-12-07T14:41:46;15.43;;;12.20;;
9264;SDS011;4669;49.594;10.958;2022-12-07T14:46:51;13.40;;;11.55;;
9264;SDS011;4669;49.594;10.958;2022-12-07T14:51:53;16.90;;;12.00;;
9264;SDS011;4669;49.594;10.958;2022-12-07T14:56:57;11.18;;;9.73;;
9264;SDS011;4669;49.594;10.958;2022-12-07T15:01:59;9.65;;;8.75;;
9264;SDS011;4669;49.594;10.958;2022-12-07T15:07:02;9.48;;;8.48;;
9264;SDS011;4669;49.594;10.958;2022-12-07T15:12:07;10.13;;;9.07;;
9264;SDS011;4669;49.594;10.958;2022-12-07T15:17:10;11.13;;;8.63;;
9264;SDS011;4669;49.594;10.958;2022-12-07T15:22:13;11.80;;;10.60;;
9264;SDS011;4669;49.594;10.958;2022-12-07T15:27:16;12.32;;;11.10;;
9264;SDS011;4669;49.594;10.958;2022-12-07T15:32:18;12.20;;;10.65;;
9264;SDS011;4669;49.594;10.958;2022-12-07T15:37:20;12.30;;;11.07;;
9264;SDS011;4669;49.594;10.958;2022-12-07T15:42:23;13.35;;;11.95;;
9264;SDS011;4669;49.594;10.958;2022-12-07T15:47:25;14.57;;;13.18;;
9264;SDS011;4669;49.594;10.958;2022-12-07T15:52:27;13.38;;;11.98;;
9264;SDS011;4669;49.594;10.958;2022-12-07T15:57:31;14.35;;;12.85;;
9264;SDS011;4669;49.594;10.958;2022-12-07T16:02:33;15.63;;;13.48;;
9264;SDS011;4669;49.594;10.958;2022-12-07T16:07:35;16.13;;;13.55;;
9264;SDS011;4669;49.594;10.958;2022-12-07T16:12:39;15.63;;;14.00;;
9264;SDS011;4669;49.594;10.958;2022-12-07T16:17:41;18.17;;;15.70;;
9264;SDS011;4669;49.594;10.958;2022-12-07T16:22:43;21.25;;;19.02;;
9264;SDS011;4669;49.594;10.958;2022-12-07T16:27:46;24.63;;;21.90;;
9264;SDS011;4669;49.594;10.958;2022-12-07T16:32:48;27.15;;;23.00;;
9264;SDS011;4669;49.594;10.958;2022-12-07T16:37:50;18.92;;;16.45;;
9264;SDS011;4669;49.594;10.958;2022-12-07T16:42:54;17.73;;;15.90;;
9264;SDS011;4669;49.594;10.958;2022-12-07T16:47:55;17.63;;;15.35;;
9264;SDS011;4669;49.594;10.958;2022-12-07T16:52:57;17.42;;;15.63;;
9264;SDS011;4669;49.594;10.958;2022-12-07T16:58:01;18.55;;;16.55;;
9264;SDS011;4669;49.594;10.958;2022-12-07T17:03:03;22.35;;;18.02;;
9264;SDS011;4669;49.594;10.958;2022-12-07T17:08:05;17.63;;;15.13;;
9264;SDS011;4669;49.594;10.958;2022-12-07T17:13:12;18.02;;;16.13;;
9264;SDS011;4669;49.594;10.958;2022-12-07T17:18:34;19.33;;;16.20;;
9264;SDS011;4669;49.594;10.958;2022-12-07T17:23:37;21.48;;;16.83;;
9264;SDS011;4669;49.594;10.958;2022-12-07T17:28:40;18.00;;;16.10;;
9264;SDS011;4669;49.594;10.958;2022-12-07T17:33:42;18.15;;;16.25;;
9264;SDS011;4669;49.594;10.958;2022-12-07T17:38:44;18.13;;;16.33;;
9264;SDS011;4669;49.594;10.958;2022-12-07T17:43:48;18.05;;;16.15;;
9264;SDS011;4669;49.594;10.958;2022-12-07T17:48:53;18.67;;;16.77;;
9264;SDS011;4669;49.594;10.958;2022-12-07T17:53:55;19.63;;;16.40;;
9264;SDS011;4669;49.594;10.958;2022-12-07T17:59:01;19.02;;;17.02;;
9264;SDS011;4669;49.594;10.958;2022-12-07T18:04:05;18.75;;;16.70;;
9264;SDS011;4669;49.594;10.958;2022-12-07T18:09:59;19.90;;;17.90;;
9264;SDS011;4669;49.594;10.958;2022-12-07T18:15:03;21.40;;;19.20;;
9264;SDS011;4669;49.594;10.958;2022-12-07T18:20:06;22.23;;;18.10;;
9264;SDS011;4669;49.594;10.958;2022-12-07T18:25:08;19.75;;;16.08;;
9264;SDS011;4669;49.594;10.958;2022-12-07T18:30:12;19.30;;;17.30;;
9264;SDS011;4669;49.594;10.958;2022-12-07T18:35:14;18.17;;;16.05;;
9264;SDS011;4669;49.594;10.958;2022-12-07T18:40:17;18.48;;;16.65;;
9264;SDS011;4669;49.594;10.958;2022-12-07T18:45:20;18.33;;;16.33;;
9264;SDS011;4669;49.594;10.958;2022-12-07T18:50:22;19.60;;;16.83;;
9264;SDS011;4669;49.594;10.958;2022-12-07T18:55:24;19.33;;;17.33;;
9264;SDS011;4669;49.594;10.958;2022-12-07T19:00:28;19.05;;;17.05;;
9264;SDS011;4669;49.594;10.958;2022-12-07T19:05:31;17.85;;;15.98;;
9264;SDS011;4669;49.594;10.958;2022-12-07T19:10:35;19.38;;;17.48;;
9264;SDS011;4669;49.594;10.958;2022-12-07T19:15:39;22.30;;;17.27;;
9264;SDS011;4669;49.594;10.958;2022-12-07T19:20:42;17.02;;;15.32;;
9264;SDS011;4669;49.594;10.958;2022-12-07T19:25:44;21.33;;;17.30;;
9264;SDS011;4669;49.594;10.958;2022-12-07T19:30:47;19.25;;;17.30;;
9264;SDS011;4669;49.594;10.958;2022-12-07T19:35:49;18.63;;;16.83;;
9264;SDS011;4669;49.594;10.958;2022-12-07T19:40:51;23.83;;;21.20;;
9264;SDS011;4669;49.594;10.958;2022-12-07T19:45:55;19.75;;;17.45;;
9264;SDS011;4669;49.594;10.958;2022-12-07T19:51:00;19.90;;;17.90;;
9264;SDS011;4669;49.594;10.958;2022-12-07T19:56:03;20.92;;;16.92;;
9264;SDS011;4669;49.594;10.958;2022-12-07T20:01:07;19.83;;;17.45;;
9264;SDS011;4669;49.594;10.958;2022-12-07T20:06:11;18.73;;;16.42;;
9264;SDS011;4669;49.594;10.958;2022-12-07T20:11:15;17.75;;;15.75;;
9264;SDS011;4669;49.594;10.958;2022-12-07T20:16:37;18.73;;;16.73;;
9264;SDS011;4669;49.594;10.958;2022-12-07T20:21:40;20.55;;;18.45;;
9264;SDS011;4669;49.594;10.958;2022-12-07T20:26:43;19.85;;;17.23;;
9264;SDS011;4669;49.594;10.958;2022-12-07T20:31:49;19.40;;;17.35;;
9264;SDS011;4669;49.594;10.958;2022-12-07T20:36:53;19.35;;;17.35;;
9264;SDS011;4669;49.594;10.958;2022-12-07T20:41:56;20.35;;;18.13;;
9264;SDS011;4669;49.594;10.958;2022-12-07T20:47:16;20.20;;;18.02;;
9264;SDS011;4669;49.594;10.958;2022-12-07T20:52:18;19.92;;;17.45;;
9264;SDS011;4669;49.594;10.958;2022-12-07T20:57:21;21.30;;;19.00;;
9264;SDS011;4669;49.594;10.958;2022-12-07T21:02:25;20.67;;;18.58;;
9264;SDS011;4669;49.594;10.958;2022-12-07T21:07:27;20.20;;;18.15;;
9264;SDS011;4669;49.594;10.958;2022-12-07T21:12:29;21.00;;;18.60;;
9264;SDS011;4669;49.594;10.958;2022-12-07T21:17:32;21.33;;;17.17;;
9264;SDS011;4669;49.594;10.958;2022-12-07T21:22:35;21.40;;;18.20;;
9264;SDS011;4669;49.594;10.958;2022-12-07T21:27:37;20.33;;;18.33;;
9264;SDS011;4669;49.594;10.958;2022-12-07T21:32:40;21.00;;;17.13;;
9264;SDS011;4669;49.594;10.958;2022-12-07T21:37:42;20.38;;;17.15;;
9264;SDS011;4669;49.594;10.958;2022-12-07T21:42:44;19.35;;;17.27;;
9264;SDS011;4669;49.594;10.958;2022-12-07T21:47:47;19.60;;;17.08;;
9264;SDS011;4669;49.594;10.958;2022-12-07T21:52:49;18.77;;;16.83;;
9264;SDS011;4669;49.594;10.958;2022-12-07T21:57:52;23.50;;;17.17;;
9264;SDS011;4669;49.594;10.958;2022-12-07T22:02:55;20.88;;;18.23;;
9264;SDS011;4669;49.594;10.958;2022-12-07T22:07:57;19.80;;;17.45;;
9264;SDS011;4669;49.594;10.958;2022-12-07T22:12:59;19.00;;;16.98;;
9264;SDS011;4669;49.594;10.958;2022-12-07T22:18:02;21.00;;;18.30;;
9264;SDS011;4669;49.594;10.958;2022-12-07T22:23:04;20.20;;;16.88;;
9264;SDS011;4669;49.594;10.958;2022-12-07T22:28:06;19.95;;;17.67;;
9264;SDS011;4669;49.594;10.958;2022-12-07T22:33:10;21.85;;;19.20;;
9264;SDS011;4669;49.594;10.958;2022-12-07T22:38:12;21.05;;;17.65;;
9264;SDS011;4669;49.594;10.958;2022-12-07T22:43:14;19.85;;;17.35;;
9264;SDS011;4669;49.594;10.958;2022-12-07T22:48:18;21.63;;;19.33;;
9264;SDS011;4669;49.594;10.958;2022-12-07T22:53:20;21.27;;;18.90;;
9264;SDS011;4669;49.594;10.958;2022-12-07T22:58:23;24.80;;;20.25;;
